Pagina principale
METAR-TAF:

METAR-TAF

Aeroporti :

Verona, Italia

Aeroporto di Verona-Villafranca

latitudine: 45-23N, longitudine: 010-52E, altezza: 67 m

Osservazione

Il bollettino è stato emesso 16 minuti fa, alle 00:50 UTC
Vento 2 kt da direzioni variabili
Temperature 4°C
Umidità 93%
Pressione 1001 hPa
Visibilità: 2000 m
Poco nuvoloso ad un'altezza di 400 ft
Nubi sparse ad un'altezza di 1000 ft
foschia

METAR: LIPX 170050Z VRB02KT 2000 BR FEW004 SCT010 04/03 Q1001

Ora: 02:06 (01:06 UTC)

Previsione

Il bollettino è stato emesso 2 ore e 6 minuti fa, alle 23:00 UTC
Previsione valida dal 17 alle 00 UTC al 17 alle 09 UTC
Vento 5 kt da direzioni variabili
Visibilità: 3000 m
Nubi sparse ad un'altezza di 1000 ft
foschia
Temporaneamente
dal 17 alle 00 UTC al 17 alle 06 UTC
Visibilità: 0600 m
Nuvoloso ad un'altezza di 500 ft
nebbia

TAF: LIPX 162300Z 1700/1709 VRB05KT 3000 BR SCT010 TEMPO 1700/1706 0600 FG BKN005

Osservazioni e previsioni meteorologiche di più di 4000 aeroporti (messaggi METAR e TAF).

Le stazioni disponibili sono rappresentate dai dischi gialli e rossi sulla carta.

Puntare il mouse per vedere il nome della stazione.

Clicca sopra per visualizzare le osservazioni e previsioni meteorologiche.

Per cambiare la mappa : fare clic sui pulsanti verdi con una croce nera per ingrandire, il pulsante verde con un trattino per diminuire, o sulla freccia verde per le mappe adiacenti.


METAR-TAF: